Metar z pełnej godziny Komunikat METAR ze strony awiacja.imgw.pl Metar G00 EPBY METAR EPBY 212300Z 07011KT CAVOK 18/12 Q1011=